Time;durP1;ratioP1;P1;durP2;ratioP2;P2;SDS_P1;SDS_P2;PMS_P1;PMS_P2;Temp;Humidity;BMP_temperature;BMP_pressure;BME280_temperature;BME280_humidity;BME280_pressure;Samples;Min_cycle;Max_cycle;Signal;HPM_P1;HPM_P2
2022/07/25 00:01:21;;;;;;;8.52;4.20;;;;;;;18.38;56.50;101019.97;5110761;28;20555;-55
2022/07/25 00:03:48;;;;;;;5.25;3.22;;;;;;;18.23;57.00;101022.47;5115128;28;20054;-56
2022/07/25 00:06:14;;;;;;;8.77;3.75;;;;;;;18.08;57.04;101023.09;5107082;28;20027;-56
2022/07/25 00:08:40;;;;;;;8.32;3.85;;;;;;;18.17;57.23;101018.91;5104775;22;20059;-55
2022/07/25 00:11:06;;;;;;;6.22;3.30;;;;;;;18.10;56.88;101012.81;5103424;28;20443;-56
2022/07/25 00:13:33;;;;;;;5.30;3.58;;;;;;;18.02;57.91;101007.84;5114788;27;20118;-55
2022/07/25 00:15:59;;;;;;;7.85;4.18;;;;;;;17.52;59.24;101014.97;5110057;28;20040;-55
2022/07/25 00:18:25;;;;;;;4.88;3.70;;;;;;;17.73;59.16;101018.03;5114684;28;20023;-56
2022/07/25 00:20:52;;;;;;;5.70;4.05;;;;;;;17.51;59.79;101018.75;5111798;27;20076;-56
2022/07/25 00:23:19;;;;;;;7.85;4.07;;;;;;;16.95;60.62;101020.56;5105782;27;20522;-55
2022/07/25 00:25:45;;;;;;;7.07;4.10;;;;;;;16.81;61.53;101009.22;5113043;28;20495;-55
2022/07/25 00:28:11;;;;;;;5.90;3.88;;;;;;;16.87;61.12;101012.81;5110833;28;20035;-55
2022/07/25 00:30:37;;;;;;;6.13;3.60;;;;;;;16.67;61.65;101007.03;5114580;28;20030;-55
2022/07/25 00:33:03;;;;;;;5.82;3.97;;;;;;;16.42;63.05;101013.59;5111946;28;20027;-55
2022/07/25 00:35:30;;;;;;;9.07;4.55;;;;;;;16.36;63.27;101015.38;5114284;28;20080;-55
2022/07/25 00:37:56;;;;;;;6.60;4.05;;;;;;;16.38;63.65;101009.75;5111827;28;20151;-55
2022/07/25 00:40:22;;;;;;;8.32;5.35;;;;;;;16.76;63.13;101013.72;5114056;28;20103;-54
2022/07/25 00:42:48;;;;;;;5.93;3.97;;;;;;;16.30;63.12;101018.22;5111450;28;20481;-53
2022/07/25 00:45:15;;;;;;;11.35;5.13;;;;;;;15.96;64.70;101018.06;5113513;28;20035;-51
2022/07/25 00:47:41;;;;;;;8.23;4.63;;;;;;;15.86;65.17;101007.03;5103649;28;20032;-52
2022/07/25 00:50:07;;;;;;;9.20;4.60;;;;;;;15.81;64.69;101005.03;5093673;28;20401;-50
2022/07/25 00:52:34;;;;;;;10.32;5.82;;;;;;;15.88;65.31;100996.84;5093684;28;20028;-48
2022/07/25 00:55:00;;;;;;;7.88;4.70;;;;;;;15.87;65.16;101003.28;5093263;28;20055;-49
2022/07/25 00:57:27;;;;;;;5.53;3.83;;;;;;;15.86;64.59;100993.53;5093367;28;20020;-51
2022/07/25 00:59:53;;;;;;;8.55;4.05;;;;;;;15.99;64.26;100996.00;5093642;28;20372;-50
2022/07/25 01:02:19;;;;;;;4.95;3.25;;;;;;;15.84;65.40;100992.97;5102097;28;20077;-50
2022/07/25 01:04:45;;;;;;;5.88;3.65;;;;;;;16.07;64.77;100990.22;5091702;28;20524;-48
2022/07/25 01:07:12;;;;;;;5.38;3.22;;;;;;;16.03;64.57;100980.94;5113018;28;20051;-51
2022/07/25 01:09:39;;;;;;;4.90;3.42;;;;;;;16.34;63.44;100982.38;5095735;28;20035;-48
2022/07/25 01:12:05;;;;;;;6.55;3.45;;;;;;;16.35;63.58;100981.31;5092690;28;20019;-50
2022/07/25 01:14:31;;;;;;;4.32;2.90;;;;;;;16.37;63.56;100978.38;5100659;28;20020;-51
2022/07/25 01:16:57;;;;;;;7.47;3.85;;;;;;;16.45;63.40;100983.41;5113436;28;20031;-51
2022/07/25 01:19:24;;;;;;;5.38;3.15;;;;;;;16.31;63.37;100984.72;5093065;28;20024;-51
2022/07/25 01:21:50;;;;;;;6.35;3.47;;;;;;;16.37;62.87;100975.66;5072954;28;20020;-51
2022/07/25 01:24:16;;;;;;;4.75;3.28;;;;;;;16.15;63.43;100970.09;5075084;28;20066;-51
2022/07/25 01:26:43;;;;;;;5.03;3.63;;;;;;;16.07;64.20;100975.88;5072944;28;20033;-48
2022/07/25 01:29:09;;;;;;;9.40;3.30;;;;;;;16.07;63.92;100968.59;5072706;28;20031;-50
2022/07/25 01:31:35;;;;;;;4.68;3.47;;;;;;;16.10;63.70;100968.16;5088739;28;20118;-51
2022/07/25 01:34:01;;;;;;;6.82;3.80;;;;;;;16.12;64.09;100969.78;5093101;28;20081;-49
2022/07/25 01:36:27;;;;;;;5.95;3.90;;;;;;;15.96;64.03;100964.06;5105894;28;20020;-50
2022/07/25 01:38:54;;;;;;;5.80;3.95;;;;;;;15.94;64.41;100963.50;5112951;28;20097;-51
2022/07/25 01:41:20;;;;;;;8.05;3.60;;;;;;;15.91;65.04;100965.84;5112980;28;20027;-49
2022/07/25 01:43:46;;;;;;;4.35;3.67;;;;;;;15.41;66.19;100964.44;5113270;28;20463;-48
2022/07/25 01:46:12;;;;;;;6.40;3.40;;;;;;;15.11;66.70;100972.66;5112786;28;20429;-48
2022/07/25 01:48:39;;;;;;;5.57;4.00;;;;;;;15.24;67.19;100975.13;5112778;28;20027;-50
2022/07/25 01:51:07;;;;;;;8.07;4.07;;;;;;;14.81;68.22;100971.88;5112147;28;20042;-50
2022/07/25 01:53:33;;;;;;;7.93;3.80;;;;;;;14.94;68.09;100967.13;5111923;28;20110;-54
2022/07/25 01:55:59;;;;;;;7.63;4.05;;;;;;;14.96;68.44;100970.38;5111141;28;20497;-49
2022/07/25 01:58:25;;;;;;;5.07;3.50;;;;;;;14.75;68.98;100974.44;5112771;28;20030;-50
2022/07/25 02:00:52;;;;;;;4.88;3.65;;;;;;;14.94;68.07;100974.38;5112805;28;20384;-50
2022/07/25 02:03:30;;;;;;;7.70;4.22;;;;;;;14.93;68.44;100976.22;5098913;28;20247;-51
2022/07/25 02:06:05;;;;;;;8.48;4.43;;;;;;;15.01;68.42;100988.56;5108709;28;20020;-49
2022/07/25 02:08:31;;;;;;;;;;;;;;;15.05;68.48;100989.75;5110281;28;20031;-49
2022/07/25 02:10:58;;;;;;;5.78;3.45;;;;;;;15.32;67.35;100985.56;5103372;28;20395;-49
2022/07/25 02:13:25;;;;;;;6.00;3.60;;;;;;;15.61;66.51;100987.56;5092459;28;20094;-46
2022/07/25 02:15:51;;;;;;;5.53;3.92;;;;;;;15.59;66.03;100993.16;5091877;28;20025;-47
2022/07/25 02:18:18;;;;;;;6.32;3.80;;;;;;;15.34;66.50;101000.69;5092730;28;20465;-50
2022/07/25 02:20:44;;;;;;;6.28;4.03;;;;;;;15.50;66.48;100987.31;5091931;28;20388;-47
2022/07/25 02:23:10;;;;;;;9.35;4.60;;;;;;;15.16;67.22;100991.66;5092183;28;20159;-49
2022/07/25 02:25:37;;;;;;;9.27;4.10;;;;;;;15.35;66.45;100995.06;5091901;28;20024;-50
2022/07/25 02:28:03;;;;;;;5.75;3.80;;;;;;;15.35;66.40;101000.44;5097810;28;20101;-49
2022/07/25 02:30:30;;;;;;;5.85;4.38;;;;;;;15.01;67.94;100988.56;5092220;28;20408;-50
2022/07/25 02:32:56;;;;;;;6.18;4.03;;;;;;;14.96;67.90;100986.56;5092139;28;20027;-49
2022/07/25 02:35:22;;;;;;;10.85;4.38;;;;;;;15.15;67.49;101002.66;5091606;28;20030;-47
2022/07/25 02:37:48;;;;;;;10.90;4.78;;;;;;;15.14;67.69;100993.75;5091793;28;20032;-46
2022/07/25 02:40:14;;;;;;;9.20;4.65;;;;;;;14.69;68.93;100996.09;5110425;28;20031;-48
2022/07/25 02:42:41;;;;;;;9.75;5.20;;;;;;;14.21;71.13;101003.13;5092159;28;20063;-50
2022/07/25 02:45:08;;;;;;;9.85;5.03;;;;;;;14.24;71.25;101001.84;5110609;28;20027;-50
2022/07/25 02:47:34;;;;;;;8.88;4.47;;;;;;;14.19;71.10;101012.47;5112136;28;20082;-47
2022/07/25 02:50:00;;;;;;;8.48;4.90;;;;;;;13.82;72.58;101006.25;5112107;28;20030;-47
2022/07/25 02:52:26;;;;;;;11.65;4.65;;;;;;;13.95;72.62;101001.56;5097566;28;20107;-47
2022/07/25 02:54:52;;;;;;;9.23;4.57;;;;;;;13.80;73.10;101006.47;5091805;28;20096;-47
2022/07/25 02:57:19;;;;;;;8.82;4.80;;;;;;;13.72;73.50;101013.00;5091862;28;20051;-46
2022/07/25 02:59:45;;;;;;;9.02;4.60;;;;;;;13.55;74.25;101014.63;5091605;28;20024;-46
2022/07/25 03:02:11;;;;;;;8.45;4.57;;;;;;;13.71;73.95;101010.50;5111400;28;20024;-47
2022/07/25 03:04:37;;;;;;;9.68;5.25;;;;;;;13.52;74.84;101011.53;5116423;28;20429;-47
2022/07/25 03:07:04;;;;;;;12.02;5.30;;;;;;;13.59;74.82;101015.78;5115818;28;20044;-46
2022/07/25 03:09:30;;;;;;;13.45;5.15;;;;;;;13.40;75.27;101023.00;5116535;28;20024;-46
2022/07/25 03:11:56;;;;;;;9.68;5.35;;;;;;;13.50;75.17;101027.91;5116068;28;20032;-50
2022/07/25 03:14:22;;;;;;;12.95;5.65;;;;;;;13.39;75.21;101029.44;5116240;28;20065;-49
2022/07/25 03:16:48;;;;;;;10.05;5.60;;;;;;;13.25;75.61;101032.44;5116055;28;20030;-48
2022/07/25 03:19:14;;;;;;;12.32;6.03;;;;;;;13.27;75.89;101024.97;5115010;28;20460;-46
2022/07/25 03:21:41;;;;;;;12.57;5.93;;;;;;;13.18;76.75;101037.84;5113829;28;20027;-49
2022/07/25 03:24:07;;;;;;;11.73;5.47;;;;;;;13.05;77.29;101033.38;5095435;28;20089;-50
2022/07/25 03:26:33;;;;;;;15.85;6.90;;;;;;;13.01;77.85;101039.41;5095296;28;20039;-49
2022/07/25 03:28:59;;;;;;;10.63;5.72;;;;;;;13.04;77.69;101042.47;5095725;28;20439;-46
2022/07/25 03:31:25;;;;;;;16.35;6.95;;;;;;;12.93;78.18;101035.09;5095295;28;20035;-49
2022/07/25 03:33:52;;;;;;;12.15;5.82;;;;;;;12.99;77.88;101044.16;5095588;28;20024;-50
2022/07/25 03:36:18;;;;;;;12.25;6.18;;;;;;;12.94;77.70;101037.59;5114156;28;20028;-47
2022/07/25 03:38:44;;;;;;;11.73;5.72;;;;;;;12.91;77.53;101043.38;5115870;28;20024;-47
2022/07/25 03:41:12;;;;;;;13.23;5.70;;;;;;;12.91;77.57;101048.75;5096919;28;20032;-46
2022/07/25 03:43:38;;;;;;;14.63;6.10;;;;;;;12.89;77.78;101050.84;5095383;28;20028;-49
2022/07/25 03:46:04;;;;;;;14.43;6.32;;;;;;;12.60;79.29;101046.88;5094781;28;20540;-47
2022/07/25 03:48:31;;;;;;;15.32;7.18;;;;;;;12.80;78.60;101054.81;5094904;28;20055;-50
2022/07/25 03:50:57;;;;;;;13.93;6.28;;;;;;;12.85;78.53;101051.50;5095671;28;20054;-49
2022/07/25 03:53:23;;;;;;;15.20;6.53;;;;;;;12.79;78.81;101055.88;5095160;28;20034;-45
2022/07/25 03:55:49;;;;;;;10.63;5.65;;;;;;;12.86;77.96;101051.28;5094708;28;20024;-49
2022/07/25 03:58:15;;;;;;;16.20;5.63;;;;;;;12.79;77.93;101055.88;5094968;28;20028;-47
2022/07/25 04:00:41;;;;;;;11.65;5.10;;;;;;;12.72;78.15;101055.09;5094828;28;20035;-50
2022/07/25 04:03:08;;;;;;;12.63;5.30;;;;;;;12.91;77.65;101069.44;5094193;28;20361;-46
2022/07/25 04:05:34;;;;;;;14.55;6.40;;;;;;;12.84;78.28;101061.41;5094082;28;20062;-48
2022/07/25 04:08:00;;;;;;;9.43;5.47;;;;;;;12.69;78.71;101061.69;5092165;22;20478;-48
2022/07/25 04:10:26;;;;;;;9.30;4.93;;;;;;;12.82;78.07;101066.16;5054491;28;20024;-51
2022/07/25 04:12:52;;;;;;;11.48;5.57;;;;;;;12.76;78.24;101066.19;5052382;28;20390;-48
2022/07/25 04:15:19;;;;;;;14.93;6.30;;;;;;;12.72;79.05;101071.19;5053527;28;20071;-50
2022/07/25 04:17:45;;;;;;;10.32;6.30;;;;;;;12.68;79.03;101075.34;5053864;28;20547;-50
2022/07/25 04:20:11;;;;;;;13.05;5.78;;;;;;;12.56;79.55;101072.50;5053176;28;20152;-49
2022/07/25 04:22:38;;;;;;;9.82;5.45;;;;;;;12.64;79.62;101072.25;5053372;28;20504;-49
2022/07/25 04:25:05;;;;;;;11.50;6.25;;;;;;;12.73;79.41;101078.22;5052922;28;20056;-50
2022/07/25 04:27:31;;;;;;;12.07;5.50;;;;;;;12.57;79.35;101073.34;5053903;28;20025;-49
2022/07/25 04:29:58;;;;;;;8.50;5.47;;;;;;;12.65;79.26;101071.22;5054198;28;20040;-49
2022/07/25 04:32:24;;;;;;;13.18;5.55;;;;;;;12.62;79.13;101074.34;5052807;28;20025;-46
2022/07/25 04:34:51;;;;;;;8.63;4.63;;;;;;;12.60;79.03;101073.75;5054105;28;20025;-47
2022/07/25 04:37:17;;;;;;;8.32;5.78;;;;;;;12.46;79.81;101082.06;5052604;28;20029;-49
2022/07/25 04:39:43;;;;;;;6.68;4.35;;;;;;;12.47;79.62;101094.44;5052572;28;20021;-48
2022/07/25 04:42:09;;;;;;;15.90;6.20;;;;;;;12.48;79.88;101088.03;5051989;28;20040;-50
2022/07/25 04:44:36;;;;;;;10.57;5.22;;;;;;;12.41;80.46;101090.72;5053932;28;20017;-46
2022/07/25 04:47:02;;;;;;;9.07;5.75;;;;;;;12.43;80.23;101084.09;5052172;28;20033;-50
2022/07/25 04:49:28;;;;;;;12.57;4.80;;;;;;;12.38;80.22;101101.88;5053633;28;20500;-49
2022/07/25 04:51:58;;;;;;;9.60;5.07;;;;;;;12.46;79.91;101100.84;5051496;28;20033;-52
2022/07/25 04:54:24;;;;;;;8.85;4.70;;;;;;;12.24;81.01;101103.78;5053536;28;20021;-49
2022/07/25 04:56:50;;;;;;;11.93;5.53;;;;;;;12.28;81.34;101096.97;5052114;28;20052;-49
2022/07/25 04:59:16;;;;;;;8.27;4.57;;;;;;;12.46;79.84;101095.47;5053481;28;20442;-48
2022/07/25 05:01:42;;;;;;;9.20;5.43;;;;;;;12.40;80.12;101097.97;5051488;28;20124;-48
2022/07/25 05:04:08;;;;;;;11.05;4.93;;;;;;;12.38;80.60;101100.06;5053603;28;20082;-49
2022/07/25 05:06:35;;;;;;;7.65;4.63;;;;;;;12.49;79.87;101101.22;5050033;28;20031;-47
2022/07/25 05:09:01;;;;;;;8.40;4.80;;;;;;;12.28;80.37;101107.72;5053180;28;20082;-49
2022/07/25 05:11:27;;;;;;;9.60;4.30;;;;;;;12.31;80.71;101120.69;5051620;28;20041;-47
2022/07/25 05:13:53;;;;;;;14.05;5.57;;;;;;;12.32;80.32;101114.28;5053171;28;20489;-49
2022/07/25 05:16:19;;;;;;;7.75;4.30;;;;;;;12.32;80.20;101108.91;5051638;28;20028;-49
2022/07/25 05:18:45;;;;;;;11.85;4.20;;;;;;;12.30;80.27;101121.75;5053017;28;20032;-48
2022/07/25 05:21:12;;;;;;;8.43;4.15;;;;;;;12.23;80.57;101120.13;5051651;28;20123;-47
2022/07/25 05:23:39;;;;;;;7.55;4.43;;;;;;;12.25;80.66;101118.84;5052828;28;20025;-47
2022/07/25 05:26:05;;;;;;;9.98;5.20;;;;;;;12.38;80.44;101124.22;5050954;28;20033;-49
2022/07/25 05:28:31;;;;;;;8.32;4.32;;;;;;;12.42;80.43;101129.97;5052782;28;20033;-48
2022/07/25 05:30:58;;;;;;;7.95;4.55;;;;;;;12.41;80.75;101126.44;5051025;28;20052;-49
2022/07/25 05:33:25;;;;;;;12.63;5.05;;;;;;;12.47;80.89;101127.47;5051644;28;20090;-50
2022/07/25 05:35:52;;;;;;;9.40;4.25;;;;;;;12.37;81.10;101130.59;5051409;28;20029;-49
2022/07/25 05:38:18;;;;;;;12.40;4.82;;;;;;;12.42;80.70;101125.41;5050771;28;20043;-48
2022/07/25 05:40:44;;;;;;;10.27;4.75;;;;;;;12.37;81.00;101133.28;5050439;28;20033;-46
2022/07/25 05:43:11;;;;;;;8.60;4.45;;;;;;;12.44;81.01;101135.97;5052703;28;20049;-48
2022/07/25 05:45:37;;;;;;;10.68;4.82;;;;;;;12.37;80.55;101133.28;5051506;28;20508;-47
2022/07/25 05:48:03;;;;;;;10.20;4.28;;;;;;;12.32;80.23;101134.94;5052765;28;20116;-47
2022/07/25 05:50:29;;;;;;;7.65;4.43;;;;;;;12.29;80.58;101130.81;5051412;28;20043;-49
2022/07/25 05:52:56;;;;;;;4.82;3.60;;;;;;;12.45;79.85;101128.72;5052737;28;20024;-49
2022/07/25 05:55:22;;;;;;;6.45;3.30;;;;;;;12.37;80.02;101124.41;5050255;28;20116;-51
2022/07/25 05:57:48;;;;;;;6.75;3.58;;;;;;;12.34;79.98;101131.03;5052246;28;20028;-48
2022/07/25 06:00:14;;;;;;;8.68;4.15;;;;;;;12.28;80.16;101129.19;5048322;28;20040;-48
2022/07/25 06:02:41;;;;;;;5.43;3.15;;;;;;;12.19;80.09;101125.06;5052270;28;20525;-47
2022/07/25 06:05:07;;;;;;;4.70;3.58;;;;;;;12.09;80.38;101124.66;5050126;28;20039;-46
2022/07/25 06:07:33;;;;;;;4.40;3.20;;;;;;;12.11;80.63;101123.44;5052096;28;20089;-49
2022/07/25 06:09:59;;;;;;;7.38;4.30;;;;;;;12.15;81.04;101132.69;5050959;28;20029;-46
2022/07/25 06:12:26;;;;;;;6.13;3.25;;;;;;;12.19;80.84;101126.94;5052237;28;20076;-47
2022/07/25 06:14:52;;;;;;;5.30;3.00;;;;;;;12.15;80.85;101121.97;5050844;28;20029;-47
2022/07/25 06:17:18;;;;;;;6.57;3.70;;;;;;;12.27;80.66;101121.31;5052336;28;20033;-47
2022/07/25 06:19:44;;;;;;;8.30;3.70;;;;;;;12.23;80.79;101118.25;5051228;28;20051;-49
2022/07/25 06:22:11;;;;;;;6.65;4.15;;;;;;;12.23;80.73;101120.94;5052024;28;20021;-50
2022/07/25 06:24:37;;;;;;;8.55;4.10;;;;;;;12.28;81.07;101117.63;5050953;28;20079;-51
2022/07/25 06:27:05;;;;;;;6.90;3.40;;;;;;;12.31;80.81;101115.31;5049850;28;20081;-50
2022/07/25 06:29:32;;;;;;;6.93;3.97;;;;;;;12.22;81.65;101130.03;5050471;28;20071;-51
2022/07/25 06:31:58;;;;;;;7.78;3.70;;;;;;;12.30;81.40;101127.09;5033579;28;20037;-50
2022/07/25 06:34:24;;;;;;;7.00;3.78;;;;;;;12.23;81.46;101130.84;5051936;28;20028;-49
2022/07/25 06:36:50;;;;;;;7.40;4.28;;;;;;;12.25;81.17;101140.31;5048978;28;20028;-50
2022/07/25 06:39:16;;;;;;;6.35;3.65;;;;;;;12.29;80.80;101125.47;5051946;28;20032;-49
2022/07/25 06:41:42;;;;;;;7.15;3.67;;;;;;;12.27;80.95;101129.38;5050713;28;20323;-51
2022/07/25 06:44:09;;;;;;;6.72;3.60;;;;;;;12.25;80.78;101140.31;5052081;28;20025;-48
2022/07/25 06:46:35;;;;;;;5.25;3.58;;;;;;;12.23;80.96;101131.66;5050062;28;20025;-50
2022/07/25 06:49:01;;;;;;;6.60;3.72;;;;;;;12.28;80.93;101133.72;5051801;28;20021;-47
2022/07/25 06:51:28;;;;;;;7.57;3.22;;;;;;;12.40;80.57;101130.19;5049891;28;20052;-48
2022/07/25 06:53:55;;;;;;;5.15;3.55;;;;;;;12.44;80.31;101127.91;5051880;28;20083;-51
2022/07/25 06:56:22;;;;;;;5.38;3.10;;;;;;;12.40;80.21;101124.81;5050126;28;20035;-49
2022/07/25 06:58:48;;;;;;;6.22;3.00;;;;;;;12.32;80.04;101111.59;5051602;28;20025;-49
2022/07/25 07:01:14;;;;;;;7.95;3.35;;;;;;;12.47;80.12;101115.91;5050561;28;20029;-51
2022/07/25 07:03:40;;;;;;;5.07;3.30;;;;;;;12.51;79.88;101117.97;5049034;28;20025;-50
2022/07/25 07:06:09;;;;;;;6.75;3.40;;;;;;;12.55;79.92;101124.56;5051494;28;20506;-49
2022/07/25 07:08:36;;;;;;;8.63;3.42;;;;;;;12.48;79.71;101123.75;5049433;28;20069;-47
2022/07/25 07:11:03;;;;;;;4.93;3.05;;;;;;;12.47;79.84;101123.97;5051491;28;20037;-50
2022/07/25 07:13:30;;;;;;;4.55;3.20;;;;;;;12.51;79.63;101114.47;5049883;28;20021;-47
2022/07/25 07:15:56;;;;;;;16.27;3.22;;;;;;;12.55;79.78;101121.06;5050892;28;20033;-50
2022/07/25 07:18:23;;;;;;;3.78;3.13;;;;;;;12.63;79.44;101115.44;5051419;28;20480;-51
2022/07/25 07:20:50;;;;;;;4.50;2.67;;;;;;;12.40;80.02;101116.75;5049935;28;20205;-47
2022/07/25 07:23:17;;;;;;;4.72;3.00;;;;;;;12.42;79.91;101127.28;5051541;28;20033;-50
2022/07/25 07:25:45;;;;;;;4.15;3.10;;;;;;;12.41;80.10;101126.44;5049821;28;20039;-49
2022/07/25 07:28:12;;;;;;;6.13;3.35;;;;;;;12.58;79.85;101139.41;5049951;28;20040;-50
2022/07/25 07:30:38;;;;;;;5.47;3.45;;;;;;;12.66;79.43;101136.50;5051402;28;20065;-47
2022/07/25 07:33:04;;;;;;;6.05;3.63;;;;;;;12.66;79.25;101136.50;5050025;28;20083;-50
2022/07/25 07:35:30;;;;;;;6.80;3.50;;;;;;;12.65;79.47;101124.09;5051563;28;20445;-48
2022/07/25 07:37:56;;;;;;;5.28;3.25;;;;;;;12.68;79.68;101131.75;5050236;28;20107;-51
2022/07/25 07:40:24;;;;;;;6.72;3.70;;;;;;;12.69;79.63;101130.69;5051066;28;20033;-50
2022/07/25 07:42:50;;;;;;;4.95;3.15;;;;;;;12.68;79.30;101135.25;5050286;28;20115;-51
2022/07/25 07:45:22;;;;;;;5.18;2.88;;;;;;;12.80;78.89;101126.53;5051076;28;20370;-50
2022/07/25 07:47:50;;;;;;;5.72;3.30;;;;;;;12.88;78.63;101128.94;5051048;28;20402;-48
2022/07/25 07:50:19;;;;;;;4.32;3.20;;;;;;;12.79;79.32;101130.25;5053657;28;20115;-49
2022/07/25 07:52:45;;;;;;;6.10;3.53;;;;;;;12.85;79.22;101126.72;5054103;28;20021;-51
2022/07/25 07:57:58;;;;;;;5.55;3.83;;;;;;;12.85;78.87;101116.78;5075391;28;20039;-50
2022/07/25 08:00:29;;;;;;;6.47;3.67;;;;;;;12.84;78.97;101120.50;5063627;28;20029;-49
2022/07/25 08:02:57;;;;;;;5.85;3.65;;;;;;;13.03;78.31;101121.44;5054861;28;20550;-50
2022/07/25 08:05:41;;;;;;;6.22;3.53;;;;;;;12.98;78.25;101120.44;5035828;28;20025;-50
2022/07/25 08:08:09;;;;;;;4.25;3.15;;;;;;;13.00;78.08;101108.44;5054227;28;20063;-50
2022/07/25 08:10:41;;;;;;;6.32;3.35;;;;;;;13.06;77.94;101118.34;5054561;28;20040;-51
2022/07/25 08:13:14;;;;;;;5.97;3.67;;;;;;;13.11;78.09;101104.25;5054836;28;20040;-47
2022/07/25 08:15:40;;;;;;;7.22;3.90;;;;;;;13.05;78.00;101115.88;5054234;28;20036;-49
2022/07/25 08:18:07;;;;;;;6.93;3.85;;;;;;;12.89;78.69;101103.75;5054383;28;20032;-50
2022/07/25 08:20:33;;;;;;;8.77;3.88;;;;;;;12.97;78.45;101108.06;5053107;28;20496;-51
2022/07/25 08:22:59;;;;;;;6.60;3.30;;;;;;;13.01;78.24;101106.59;5052592;28;20021;-51
2022/07/25 08:25:26;;;;;;;7.47;3.45;;;;;;;12.97;77.91;101105.38;5054034;28;20013;-50
2022/07/25 08:27:52;;;;;;;5.70;3.08;;;;;;;13.08;77.68;101110.88;5054236;28;20408;-46
2022/07/25 08:30:19;;;;;;;5.28;3.20;;;;;;;13.14;77.48;101103.81;5054282;28;20032;-48
2022/07/25 08:32:54;;;;;;;5.15;3.10;;;;;;;13.08;77.19;101102.00;5054214;28;20048;-50
2022/07/25 08:35:23;;;;;;;7.38;3.42;;;;;;;13.04;77.59;101100.75;5053952;28;20028;-49
2022/07/25 08:37:50;;;;;;;8.38;3.50;;;;;;;13.03;77.46;101109.88;5053885;28;20021;-48
2022/07/25 08:40:18;;;;;;;4.18;2.80;;;;;;;13.06;77.32;101117.50;5053720;28;20025;-48
2022/07/25 08:42:45;;;;;;;4.95;2.80;;;;;;;13.03;77.33;101115.25;5053925;28;20049;-47
2022/07/25 08:45:13;;;;;;;4.95;2.83;;;;;;;13.07;77.40;101109.22;5053712;28;20047;-50
2022/07/25 08:47:40;;;;;;;3.88;2.45;;;;;;;13.18;77.04;101108.53;5053904;28;20120;-46
2022/07/25 08:50:09;;;;;;;5.55;2.92;;;;;;;13.06;77.01;101117.50;5053817;28;20465;-48
2022/07/25 08:52:37;;;;;;;4.10;2.80;;;;;;;13.07;76.75;101111.91;5053543;28;20489;-48
2022/07/25 08:55:06;;;;;;;4.45;2.22;;;;;;;13.13;76.40;101104.84;5053777;28;20067;-50
2022/07/25 08:57:34;;;;;;;3.47;2.35;;;;;;;13.05;76.57;101105.94;5053857;28;20388;-50
2022/07/25 09:00:01;;;;;;;3.80;2.75;;;;;;;13.05;76.98;101113.19;5053413;28;20101;-50
2022/07/25 09:02:28;;;;;;;3.38;2.17;;;;;;;13.16;76.54;101116.00;5053751;28;20026;-48
2022/07/25 09:04:56;;;;;;;3.65;1.85;;;;;;;13.05;76.96;101115.88;5053448;28;20063;-50
2022/07/25 09:07:33;;;;;;;3.70;2.10;;;;;;;12.97;77.34;101113.41;5053277;28;20028;-47
2022/07/25 09:10:14;;;;;;;3.03;1.75;;;;;;;12.94;77.12;101110.13;5053595;28;20044;-49
2022/07/25 09:12:41;;;;;;;2.33;1.50;;;;;;;13.00;76.93;101103.06;5053392;28;20025;-50
2022/07/25 09:15:08;;;;;;;3.38;1.55;;;;;;;13.09;76.71;101100.94;5052963;28;20100;-50
2022/07/25 09:17:36;;;;;;;2.88;1.83;;;;;;;12.97;77.19;101094.63;5053435;28;20033;-50
2022/07/25 09:20:05;;;;;;;3.08;2.33;;;;;;;12.98;77.47;101104.31;5053053;28;20041;-47
2022/07/25 09:22:41;;;;;;;2.45;2.10;;;;;;;12.83;77.75;101110.00;5053094;28;20082;-48
2022/07/25 09:25:19;;;;;;;2.95;1.80;;;;;;;12.86;77.69;101112.22;5052576;28;20469;-47
2022/07/25 09:27:46;;;;;;;4.32;2.08;;;;;;;12.88;77.53;101119.06;5051465;28;20029;-47
2022/07/25 09:30:14;;;;;;;3.70;2.03;;;;;;;12.84;77.79;101125.88;5050767;28;20029;-47
2022/07/25 09:32:40;;;;;;;3.47;1.92;;;;;;;12.80;78.23;101115.78;5053044;28;20101;-51
2022/07/25 09:35:07;;;;;;;2.30;1.63;;;;;;;12.73;78.31;101109.63;5052506;28;20028;-47
2022/07/25 09:37:35;;;;;;;4.47;2.00;;;;;;;12.68;78.90;101121.00;5051482;28;20039;-48
2022/07/25 09:40:12;;;;;;;2.20;1.63;;;;;;;12.66;78.83;101115.03;5050996;28;20024;-51
2022/07/25 09:42:41;;;;;;;2.00;1.52;;;;;;;12.65;78.70;101126.78;5032979;28;20034;-49
2022/07/25 09:45:14;;;;;;;2.03;1.60;;;;;;;12.68;78.88;101134.44;5033877;28;20041;-47
2022/07/25 09:47:56;;;;;;;2.10;1.85;;;;;;;12.72;79.30;101130.28;5053081;28;20029;-49
2022/07/25 09:50:25;;;;;;;2.00;1.30;;;;;;;12.68;79.93;101134.44;5034254;28;20043;-47
2022/07/25 09:52:53;;;;;;;2.63;1.70;;;;;;;12.67;79.87;101124.72;5052773;28;20017;-47
2022/07/25 09:55:20;;;;;;;2.42;1.30;;;;;;;12.64;79.45;101127.81;5050884;28;20021;-48
2022/07/25 09:57:48;;;;;;;4.38;2.20;;;;;;;12.75;79.10;101140.59;5052442;28;20078;-48
2022/07/25 10:00:19;;;;;;;3.13;1.67;;;;;;;12.75;79.41;101137.09;5050918;28;20091;-49
2022/07/25 10:02:54;;;;;;;4.20;2.00;;;;;;;12.81;79.29;101134.34;5049125;28;20028;-48
2022/07/25 10:05:20;;;;;;;;;;;;;;;12.66;79.96;101140.03;5051276;28;20039;-49
2022/07/25 10:07:49;;;;;;;3.90;1.70;;;;;;;12.70;79.61;101132.34;5033172;28;20253;-47
2022/07/25 10:10:30;;;;;;;2.08;1.52;;;;;;;12.76;79.96;101138.72;5052153;28;20033;-46
2022/07/25 10:13:09;;;;;;;2.40;1.90;;;;;;;12.83;79.98;101134.16;5051310;28;20029;-51
2022/07/25 10:15:50;;;;;;;2.42;1.60;;;;;;;12.80;80.05;101127.34;5052105;28;20627;-48
2022/07/25 10:18:22;;;;;;;2.83;1.67;;;;;;;12.85;79.76;101132.09;5051279;28;20488;-49
2022/07/25 10:20:51;;;;;;;4.13;1.90;;;;;;;12.73;80.02;101131.09;5051876;28;20071;-51
2022/07/25 10:23:17;;;;;;;3.88;2.03;;;;;;;12.67;79.99;101133.59;5050135;28;20025;-47
2022/07/25 10:25:43;;;;;;;4.50;2.33;;;;;;;12.62;80.12;101120.00;5052160;28;20061;-49
2022/07/25 10:28:11;;;;;;;4.47;2.10;;;;;;;12.76;79.86;101138.72;5049341;28;20025;-47
2022/07/25 10:30:39;;;;;;;3.55;1.48;;;;;;;12.76;79.76;101127.97;5052088;28;20025;-47
2022/07/25 10:33:17;;;;;;;2.30;1.70;;;;;;;12.74;79.49;101138.13;5050796;28;20036;-48
2022/07/25 10:35:44;;;;;;;1.90;1.48;;;;;;;12.80;79.27;101139.97;5052178;28;20017;-47
2022/07/25 10:38:11;;;;;;;3.22;1.52;;;;;;;12.77;79.64;101138.53;5050240;28;20107;-50
2022/07/25 10:40:47;;;;;;;3.33;1.63;;;;;;;12.76;80.11;101136.84;5051813;28;20071;-49
2022/07/25 10:43:21;;;;;;;3.05;1.85;;;;;;;12.71;80.49;101123.25;5039066;28;20058;-50
2022/07/25 10:45:57;;;;;;;2.90;1.85;;;;;;;12.92;79.84;101133.69;5031960;28;20028;-50
2022/07/25 10:48:25;;;;;;;3.17;1.90;;;;;;;12.90;80.19;101138.47;5047879;28;20115;-49
2022/07/25 10:51:00;;;;;;;3.30;1.95;;;;;;;12.79;80.56;101133.75;5052227;28;20048;-49
2022/07/25 10:53:34;;;;;;;4.47;1.92;;;;;;;12.80;80.72;101138.09;5049813;28;20029;-50
2022/07/25 10:56:11;;;;;;;2.90;1.80;;;;;;;12.95;80.77;101135.13;5051696;28;20029;-48
2022/07/25 10:58:59;;;;;;;3.95;2.17;;;;;;;12.83;80.87;101151.13;5050455;28;20496;-49
2022/07/25 11:01:28;;;;;;;3.55;1.80;;;;;;;12.92;80.07;101143.63;5050535;28;20041;-51
2022/07/25 11:03:56;;;;;;;2.75;1.63;;;;;;;12.94;80.19;101153.13;5051901;28;20141;-51
2022/07/25 11:06:33;;;;;;;2.90;1.50;;;;;;;12.91;80.20;101147.34;5050406;28;20029;-48
2022/07/25 11:09:00;;;;;;;3.80;1.50;;;;;;;12.84;80.59;101160.00;5049869;28;20075;-47
2022/07/25 11:11:39;;;;;;;1.58;1.40;;;;;;;12.81;80.69;101155.03;5051658;28;20374;-50
2022/07/25 11:14:14;;;;;;;3.42;1.67;;;;;;;12.87;80.39;101154.19;5050568;28;20017;-51
2022/07/25 11:16:40;;;;;;;3.80;1.73;;;;;;;12.87;80.49;101154.19;5051168;28;20036;-47
2022/07/25 11:19:20;;;;;;;3.03;1.88;;;;;;;12.78;80.40;101158.97;5050439;28;20485;-49
2022/07/25 11:21:49;;;;;;;2.58;1.55;;;;;;;12.78;80.15;101150.91;5051524;28;20112;-51
2022/07/25 11:24:15;;;;;;;1.52;1.13;;;;;;;12.77;80.02;101151.97;5051476;28;20133;-51
2022/07/25 11:26:50;;;;;;;2.38;1.10;;;;;;;12.80;79.86;101145.34;5054334;28;20029;-51
2022/07/25 11:29:23;;;;;;;2.40;1.10;;;;;;;12.78;79.09;101147.41;5048249;28;20029;-51